sensor_id;sensor_type;location;lat;lon;timestamp;temperature;humidity
23311;DHT22;11828;51.508;18.118;2022-10-16T00:01:26;28.30;38.50
23311;DHT22;11828;51.508;18.118;2022-10-16T00:03:55;28.20;38.60
23311;DHT22;11828;51.508;18.118;2022-10-16T00:06:23;28.10;38.70
23311;DHT22;11828;51.508;18.118;2022-10-16T00:08:50;28.20;38.80
23311;DHT22;11828;51.508;18.118;2022-10-16T00:11:19;28.20;38.70
23311;DHT22;11828;51.508;18.118;2022-10-16T00:13:48;28.20;38.70
23311;DHT22;11828;51.508;18.118;2022-10-16T00:16:15;28.10;38.70
23311;DHT22;11828;51.508;18.118;2022-10-16T00:18:42;27.90;38.90
23311;DHT22;11828;51.508;18.118;2022-10-16T00:21:11;28.00;38.90
23311;DHT22;11828;51.508;18.118;2022-10-16T00:23:39;28.00;39.10
23311;DHT22;11828;51.508;18.118;2022-10-16T00:26:08;28.00;39.00
23311;DHT22;11828;51.508;18.118;2022-10-16T00:28:36;28.10;39.00
23311;DHT22;11828;51.508;18.118;2022-10-16T00:31:05;28.00;39.20
23311;DHT22;11828;51.508;18.118;2022-10-16T00:33:32;28.10;39.20
23311;DHT22;11828;51.508;18.118;2022-10-16T00:36:00;27.90;39.10
23311;DHT22;11828;51.508;18.118;2022-10-16T00:38:27;27.70;39.30
23311;DHT22;11828;51.508;18.118;2022-10-16T00:40:53;27.70;39.60
23311;DHT22;11828;51.508;18.118;2022-10-16T00:43:47;27.70;39.70
23311;DHT22;11828;51.508;18.118;2022-10-16T00:46:42;27.50;39.80
23311;DHT22;11828;51.508;18.118;2022-10-16T00:49:14;27.40;40.00
23311;DHT22;11828;51.508;18.118;2022-10-16T00:51:44;27.50;40.00
23311;DHT22;11828;51.508;18.118;2022-10-16T00:54:14;27.60;39.80
23311;DHT22;11828;51.508;18.118;2022-10-16T00:56:43;27.80;39.60
23311;DHT22;11828;51.508;18.118;2022-10-16T00:59:15;28.00;39.90
23311;DHT22;11828;51.508;18.118;2022-10-16T01:01:45;28.00;39.30
23311;DHT22;11828;51.508;18.118;2022-10-16T01:04:11;27.90;39.30
23311;DHT22;11828;51.508;18.118;2022-10-16T01:06:45;27.90;39.40
23311;DHT22;11828;51.508;18.118;2022-10-16T01:09:26;27.90;39.30
23311;DHT22;11828;51.508;18.118;2022-10-16T01:12:15;27.90;39.20
23311;DHT22;11828;51.508;18.118;2022-10-16T01:15:19;27.90;39.40
23311;DHT22;11828;51.508;18.118;2022-10-16T01:18:16;28.10;39.20
23311;DHT22;11828;51.508;18.118;2022-10-16T01:20:53;28.10;39.10
23311;DHT22;11828;51.508;18.118;2022-10-16T01:23:27;28.20;39.60
23311;DHT22;11828;51.508;18.118;2022-10-16T01:32:38;28.00;39.20
23311;DHT22;11828;51.508;18.118;2022-10-16T01:35:32;28.20;39.20
23311;DHT22;11828;51.508;18.118;2022-10-16T01:38:36;28.10;39.00
23311;DHT22;11828;51.508;18.118;2022-10-16T01:41:27;28.10;39.40
23311;DHT22;11828;51.508;18.118;2022-10-16T01:44:04;28.10;39.40
23311;DHT22;11828;51.508;18.118;2022-10-16T01:46:34;28.10;39.30
23311;DHT22;11828;51.508;18.118;2022-10-16T01:49:03;28.10;39.30
23311;DHT22;11828;51.508;18.118;2022-10-16T01:51:30;28.20;39.20
23311;DHT22;11828;51.508;18.118;2022-10-16T01:53:59;28.10;39.20
23311;DHT22;11828;51.508;18.118;2022-10-16T01:56:26;28.10;39.30
23311;DHT22;11828;51.508;18.118;2022-10-16T01:59:15;28.20;39.10
23311;DHT22;11828;51.508;18.118;2022-10-16T02:01:47;28.30;39.00
23311;DHT22;11828;51.508;18.118;2022-10-16T02:04:32;28.30;38.90
23311;DHT22;11828;51.508;18.118;2022-10-16T02:07:00;28.20;39.00
23311;DHT22;11828;51.508;18.118;2022-10-16T02:09:27;28.20;39.10
23311;DHT22;11828;51.508;18.118;2022-10-16T02:11:54;28.20;39.10
23311;DHT22;11828;51.508;18.118;2022-10-16T02:14:23;28.20;39.10
23311;DHT22;11828;51.508;18.118;2022-10-16T02:16:50;28.20;39.00
23311;DHT22;11828;51.508;18.118;2022-10-16T02:19:17;28.30;39.10
23311;DHT22;11828;51.508;18.118;2022-10-16T02:22:00;28.20;39.10
23311;DHT22;11828;51.508;18.118;2022-10-16T02:27:11;28.20;39.10
23311;DHT22;11828;51.508;18.118;2022-10-16T02:29:47;28.10;39.30
23311;DHT22;11828;51.508;18.118;2022-10-16T02:32:20;28.00;39.40
23311;DHT22;11828;51.508;18.118;2022-10-16T02:34:49;27.90;39.60
23311;DHT22;11828;51.508;18.118;2022-10-16T02:37:17;27.80;39.90
23311;DHT22;11828;51.508;18.118;2022-10-16T02:39:44;28.00;39.80
23311;DHT22;11828;51.508;18.118;2022-10-16T02:42:14;28.00;39.70
23311;DHT22;11828;51.508;18.118;2022-10-16T02:44:41;27.90;39.70
23311;DHT22;11828;51.508;18.118;2022-10-16T02:47:07;28.00;39.90
23311;DHT22;11828;51.508;18.118;2022-10-16T02:49:33;28.00;40.00
23311;DHT22;11828;51.508;18.118;2022-10-16T02:51:59;28.10;39.80
23311;DHT22;11828;51.508;18.118;2022-10-16T02:54:25;28.10;39.80
23311;DHT22;11828;51.508;18.118;2022-10-16T02:56:51;28.10;39.70
23311;DHT22;11828;51.508;18.118;2022-10-16T02:59:17;28.20;39.60
23311;DHT22;11828;51.508;18.118;2022-10-16T03:01:43;28.20;39.60
23311;DHT22;11828;51.508;18.118;2022-10-16T03:04:09;28.10;39.60
23311;DHT22;11828;51.508;18.118;2022-10-16T03:06:35;28.30;39.40
23311;DHT22;11828;51.508;18.118;2022-10-16T03:09:01;28.30;39.40
23311;DHT22;11828;51.508;18.118;2022-10-16T03:11:27;28.30;39.40
23311;DHT22;11828;51.508;18.118;2022-10-16T03:13:54;28.30;39.40
23311;DHT22;11828;51.508;18.118;2022-10-16T03:16:20;28.40;39.20
23311;DHT22;11828;51.508;18.118;2022-10-16T03:18:49;28.40;39.20
23311;DHT22;11828;51.508;18.118;2022-10-16T03:21:15;28.30;39.40
23311;DHT22;11828;51.508;18.118;2022-10-16T03:23:42;28.20;39.50
23311;DHT22;11828;51.508;18.118;2022-10-16T03:26:08;28.30;39.40
23311;DHT22;11828;51.508;18.118;2022-10-16T03:28:34;28.30;39.40
23311;DHT22;11828;51.508;18.118;2022-10-16T03:31:00;28.20;39.60
23311;DHT22;11828;51.508;18.118;2022-10-16T03:33:26;28.00;39.60
23311;DHT22;11828;51.508;18.118;2022-10-16T03:35:53;27.90;39.90
23311;DHT22;11828;51.508;18.118;2022-10-16T03:38:21;27.80;40.10
23311;DHT22;11828;51.508;18.118;2022-10-16T03:40:47;27.80;40.20
23311;DHT22;11828;51.508;18.118;2022-10-16T03:43:13;27.80;40.20
23311;DHT22;11828;51.508;18.118;2022-10-16T03:45:39;27.80;40.30
23311;DHT22;11828;51.508;18.118;2022-10-16T03:48:05;27.70;40.20
23311;DHT22;11828;51.508;18.118;2022-10-16T03:50:31;27.70;40.30
23311;DHT22;11828;51.508;18.118;2022-10-16T03:52:57;27.60;40.50
23311;DHT22;11828;51.508;18.118;2022-10-16T03:55:23;27.70;40.40
23311;DHT22;11828;51.508;18.118;2022-10-16T03:57:49;27.80;40.30
23311;DHT22;11828;51.508;18.118;2022-10-16T04:00:15;27.80;40.30
23311;DHT22;11828;51.508;18.118;2022-10-16T04:02:42;27.80;40.40
23311;DHT22;11828;51.508;18.118;2022-10-16T04:05:08;27.90;40.40
23311;DHT22;11828;51.508;18.118;2022-10-16T04:07:34;27.90;40.30
23311;DHT22;11828;51.508;18.118;2022-10-16T04:10:01;28.00;40.30
23311;DHT22;11828;51.508;18.118;2022-10-16T04:12:27;28.00;40.10
23311;DHT22;11828;51.508;18.118;2022-10-16T04:14:53;28.10;40.10
23311;DHT22;11828;51.508;18.118;2022-10-16T04:17:19;28.10;39.90
23311;DHT22;11828;51.508;18.118;2022-10-16T04:19:45;28.00;39.90
23311;DHT22;11828;51.508;18.118;2022-10-16T04:22:11;28.00;40.10
23311;DHT22;11828;51.508;18.118;2022-10-16T04:24:37;28.00;40.20
23311;DHT22;11828;51.508;18.118;2022-10-16T04:27:04;28.00;40.10
23311;DHT22;11828;51.508;18.118;2022-10-16T04:29:31;27.90;40.30
23311;DHT22;11828;51.508;18.118;2022-10-16T04:31:57;27.90;40.30
23311;DHT22;11828;51.508;18.118;2022-10-16T04:34:23;27.90;40.50
23311;DHT22;11828;51.508;18.118;2022-10-16T04:36:49;28.00;40.40
23311;DHT22;11828;51.508;18.118;2022-10-16T04:39:16;28.00;40.20
23311;DHT22;11828;51.508;18.118;2022-10-16T04:41:42;28.10;40.20
23311;DHT22;11828;51.508;18.118;2022-10-16T04:44:08;28.10;40.10
23311;DHT22;11828;51.508;18.118;2022-10-16T04:46:34;28.10;40.10
23311;DHT22;11828;51.508;18.118;2022-10-16T04:49:00;28.30;39.90
23311;DHT22;11828;51.508;18.118;2022-10-16T04:51:26;28.20;40.00
23311;DHT22;11828;51.508;18.118;2022-10-16T04:53:53;28.20;40.00
23311;DHT22;11828;51.508;18.118;2022-10-16T04:56:20;28.10;40.00
23311;DHT22;11828;51.508;18.118;2022-10-16T04:58:47;28.00;40.80
23311;DHT22;11828;51.508;18.118;2022-10-16T05:01:13;28.10;40.40
23311;DHT22;11828;51.508;18.118;2022-10-16T05:03:42;28.00;40.20
23311;DHT22;11828;51.508;18.118;2022-10-16T05:06:08;29.80;41.30
23311;DHT22;11828;51.508;18.118;2022-10-16T05:08:34;28.20;40.30
23311;DHT22;11828;51.508;18.118;2022-10-16T05:11:00;28.20;40.30
23311;DHT22;11828;51.508;18.118;2022-10-16T05:13:27;28.20;40.10
23311;DHT22;11828;51.508;18.118;2022-10-16T05:15:53;28.20;40.30
23311;DHT22;11828;51.508;18.118;2022-10-16T05:18:19;28.20;40.30
23311;DHT22;11828;51.508;18.118;2022-10-16T05:20:45;28.10;40.30
23311;DHT22;11828;51.508;18.118;2022-10-16T05:23:11;28.00;40.50
23311;DHT22;11828;51.508;18.118;2022-10-16T05:25:37;28.10;40.40
23311;DHT22;11828;51.508;18.118;2022-10-16T05:28:03;28.30;40.30
23311;DHT22;11828;51.508;18.118;2022-10-16T05:30:29;28.30;40.20
23311;DHT22;11828;51.508;18.118;2022-10-16T05:32:55;28.40;40.80
23311;DHT22;11828;51.508;18.118;2022-10-16T05:35:21;28.30;40.20
23311;DHT22;11828;51.508;18.118;2022-10-16T05:37:48;28.30;40.20
23311;DHT22;11828;51.508;18.118;2022-10-16T05:40:14;28.40;40.20
23311;DHT22;11828;51.508;18.118;2022-10-16T05:42:41;28.40;40.20
23311;DHT22;11828;51.508;18.118;2022-10-16T05:45:09;28.50;40.20
23311;DHT22;11828;51.508;18.118;2022-10-16T05:47:37;28.50;40.10
23311;DHT22;11828;51.508;18.118;2022-10-16T05:50:03;28.40;40.10
23311;DHT22;11828;51.508;18.118;2022-10-16T05:52:30;28.30;40.20
23311;DHT22;11828;51.508;18.118;2022-10-16T05:54:56;28.30;40.20
23311;DHT22;11828;51.508;18.118;2022-10-16T05:57:22;28.40;40.30
23311;DHT22;11828;51.508;18.118;2022-10-16T05:59:48;28.50;40.20
23311;DHT22;11828;51.508;18.118;2022-10-16T06:02:14;28.50;40.20
23311;DHT22;11828;51.508;18.118;2022-10-16T06:04:42;28.60;40.10
23311;DHT22;11828;51.508;18.118;2022-10-16T06:07:08;28.60;40.10
23311;DHT22;11828;51.508;18.118;2022-10-16T06:09:34;28.60;40.10
23311;DHT22;11828;51.508;18.118;2022-10-16T06:12:00;28.60;40.30
23311;DHT22;11828;51.508;18.118;2022-10-16T06:14:26;28.40;40.40
23311;DHT22;11828;51.508;18.118;2022-10-16T06:16:52;28.40;40.50
23311;DHT22;11828;51.508;18.118;2022-10-16T06:19:18;28.30;40.70
23311;DHT22;11828;51.508;18.118;2022-10-16T06:21:44;28.30;40.60
23311;DHT22;11828;51.508;18.118;2022-10-16T06:24:10;28.40;40.60
23311;DHT22;11828;51.508;18.118;2022-10-16T06:26:37;28.40;40.70
23311;DHT22;11828;51.508;18.118;2022-10-16T06:29:04;28.40;40.60
23311;DHT22;11828;51.508;18.118;2022-10-16T06:31:30;28.40;40.70
23311;DHT22;11828;51.508;18.118;2022-10-16T06:33:59;28.50;40.60
23311;DHT22;11828;51.508;18.118;2022-10-16T06:36:25;28.50;40.60
23311;DHT22;11828;51.508;18.118;2022-10-16T06:38:52;28.60;40.50
23311;DHT22;11828;51.508;18.118;2022-10-16T06:41:20;28.70;40.50
23311;DHT22;11828;51.508;18.118;2022-10-16T06:43:48;28.90;40.60
23311;DHT22;11828;51.508;18.118;2022-10-16T06:46:16;29.10;40.30
23311;DHT22;11828;51.508;18.118;2022-10-16T06:48:44;29.10;40.10
23311;DHT22;11828;51.508;18.118;2022-10-16T06:51:13;29.30;40.00
23311;DHT22;11828;51.508;18.118;2022-10-16T06:53:42;29.30;39.70
23311;DHT22;11828;51.508;18.118;2022-10-16T06:56:20;29.40;39.60
23311;DHT22;11828;51.508;18.118;2022-10-16T06:58:49;29.50;39.80
23311;DHT22;11828;51.508;18.118;2022-10-16T07:01:17;29.50;39.70
23311;DHT22;11828;51.508;18.118;2022-10-16T07:03:45;29.70;39.30
23311;DHT22;11828;51.508;18.118;2022-10-16T07:06:14;29.70;39.20
23311;DHT22;11828;51.508;18.118;2022-10-16T07:08:43;29.80;38.90
23311;DHT22;11828;51.508;18.118;2022-10-16T07:11:13;29.80;38.90
23311;DHT22;11828;51.508;18.118;2022-10-16T07:13:42;29.80;39.00
23311;DHT22;11828;51.508;18.118;2022-10-16T07:16:14;29.80;39.00
23311;DHT22;11828;51.508;18.118;2022-10-16T07:18:42;29.90;38.90
23311;DHT22;11828;51.508;18.118;2022-10-16T07:21:13;29.90;38.80
23311;DHT22;11828;51.508;18.118;2022-10-16T07:23:43;30.00;39.00
23311;DHT22;11828;51.508;18.118;2022-10-16T07:26:10;30.10;38.90
23311;DHT22;11828;51.508;18.118;2022-10-16T07:28:37;30.00;38.80
23311;DHT22;11828;51.508;18.118;2022-10-16T07:31:07;30.10;38.80
23311;DHT22;11828;51.508;18.118;2022-10-16T07:33:37;30.10;38.80
23311;DHT22;11828;51.508;18.118;2022-10-16T07:36:04;30.30;38.60
23311;DHT22;11828;51.508;18.118;2022-10-16T07:38:31;30.20;38.40
23311;DHT22;11828;51.508;18.118;2022-10-16T07:41:09;30.20;38.60
23311;DHT22;11828;51.508;18.118;2022-10-16T07:43:48;30.30;38.70
23311;DHT22;11828;51.508;18.118;2022-10-16T07:46:15;30.40;38.60
23311;DHT22;11828;51.508;18.118;2022-10-16T07:48:43;30.50;38.30
23311;DHT22;11828;51.508;18.118;2022-10-16T07:51:23;30.60;38.30
23311;DHT22;11828;51.508;18.118;2022-10-16T07:53:50;30.60;38.10
23311;DHT22;11828;51.508;18.118;2022-10-16T07:56:17;30.60;38.40
23311;DHT22;11828;51.508;18.118;2022-10-16T07:58:44;30.70;38.00
23311;DHT22;11828;51.508;18.118;2022-10-16T08:01:13;30.70;37.90
23311;DHT22;11828;51.508;18.118;2022-10-16T08:03:45;30.80;37.90
23311;DHT22;11828;51.508;18.118;2022-10-16T08:06:13;30.80;38.00
23311;DHT22;11828;51.508;18.118;2022-10-16T08:08:39;30.90;38.10
23311;DHT22;11828;51.508;18.118;2022-10-16T08:11:05;31.00;37.80
23311;DHT22;11828;51.508;18.118;2022-10-16T08:13:32;31.00;37.80
23311;DHT22;11828;51.508;18.118;2022-10-16T08:15:58;31.00;37.90
23311;DHT22;11828;51.508;18.118;2022-10-16T08:18:24;31.10;37.90
23311;DHT22;11828;51.508;18.118;2022-10-16T08:20:57;31.10;37.60
23311;DHT22;11828;51.508;18.118;2022-10-16T08:23:25;31.00;37.40
23311;DHT22;11828;51.508;18.118;2022-10-16T08:25:52;31.10;37.60
23311;DHT22;11828;51.508;18.118;2022-10-16T08:28:19;31.10;37.60
23311;DHT22;11828;51.508;18.118;2022-10-16T08:30:45;31.20;37.50
23311;DHT22;11828;51.508;18.118;2022-10-16T08:33:11;31.20;37.40
23311;DHT22;11828;51.508;18.118;2022-10-16T08:35:37;31.20;37.60
23311;DHT22;11828;51.508;18.118;2022-10-16T08:38:04;31.20;37.60
23311;DHT22;11828;51.508;18.118;2022-10-16T08:40:33;31.30;37.60
23311;DHT22;11828;51.508;18.118;2022-10-16T08:48:46;31.90;37.40
23311;DHT22;11828;51.508;18.118;2022-10-16T08:56:31;32.20;36.40
23311;DHT22;11828;51.508;18.118;2022-10-16T08:58:59;32.60;36.00
23311;DHT22;11828;51.508;18.118;2022-10-16T09:01:37;32.90;35.60
23311;DHT22;11828;51.508;18.118;2022-10-16T09:04:29;33.00;35.10
23311;DHT22;11828;51.508;18.118;2022-10-16T09:07:08;33.20;35.00
23311;DHT22;11828;51.508;18.118;2022-10-16T09:12:24;33.70;34.50
23311;DHT22;11828;51.508;18.118;2022-10-16T09:15:06;34.00;33.60
23311;DHT22;11828;51.508;18.118;2022-10-16T09:23:33;34.00;33.10
23311;DHT22;11828;51.508;18.118;2022-10-16T09:26:01;33.90;33.30
23311;DHT22;11828;51.508;18.118;2022-10-16T09:28:28;33.90;33.30
23311;DHT22;11828;51.508;18.118;2022-10-16T09:30:54;33.90;33.30
23311;DHT22;11828;51.508;18.118;2022-10-16T09:33:23;33.70;33.30
23311;DHT22;11828;51.508;18.118;2022-10-16T09:35:55;33.70;34.30
23311;DHT22;11828;51.508;18.118;2022-10-16T09:41:00;33.60;33.40
23311;DHT22;11828;51.508;18.118;2022-10-16T09:43:41;33.50;33.50
23311;DHT22;11828;51.508;18.118;2022-10-16T09:51:31;33.40;33.90
23311;DHT22;11828;51.508;18.118;2022-10-16T09:54:18;33.30;34.00
23311;DHT22;11828;51.508;18.118;2022-10-16T09:56:46;33.20;34.40
23311;DHT22;11828;51.508;18.118;2022-10-16T09:59:21;33.20;34.40
23311;DHT22;11828;51.508;18.118;2022-10-16T10:01:55;33.10;34.40
23311;DHT22;11828;51.508;18.118;2022-10-16T10:04:25;33.10;34.50
23311;DHT22;11828;51.508;18.118;2022-10-16T10:06:53;33.00;34.70
23311;DHT22;11828;51.508;18.118;2022-10-16T10:09:39;33.00;34.70
23311;DHT22;11828;51.508;18.118;2022-10-16T10:12:06;32.90;34.80
23311;DHT22;11828;51.508;18.118;2022-10-16T10:14:49;33.10;35.20
23311;DHT22;11828;51.508;18.118;2022-10-16T10:17:22;33.20;34.80
23311;DHT22;11828;51.508;18.118;2022-10-16T10:19:58;33.20;34.50
23311;DHT22;11828;51.508;18.118;2022-10-16T10:22:46;33.30;34.60
23311;DHT22;11828;51.508;18.118;2022-10-16T10:33:24;34.30;33.40
23311;DHT22;11828;51.508;18.118;2022-10-16T10:36:29;34.60;33.40
23311;DHT22;11828;51.508;18.118;2022-10-16T10:39:02;34.70;32.50
23311;DHT22;11828;51.508;18.118;2022-10-16T10:42:02;34.70;32.20
23311;DHT22;11828;51.508;18.118;2022-10-16T10:53:31;34.70;32.60
23311;DHT22;11828;51.508;18.118;2022-10-16T11:02:26;34.80;32.20
23311;DHT22;11828;51.508;18.118;2022-10-16T11:05:28;34.90;32.20
23311;DHT22;11828;51.508;18.118;2022-10-16T11:08:02;34.80;32.00
23311;DHT22;11828;51.508;18.118;2022-10-16T11:10:57;34.80;32.10
23311;DHT22;11828;51.508;18.118;2022-10-16T11:13:40;34.60;32.20
23311;DHT22;11828;51.508;18.118;2022-10-16T11:16:28;34.50;32.20
23311;DHT22;11828;51.508;18.118;2022-10-16T11:19:13;34.20;32.40
23311;DHT22;11828;51.508;18.118;2022-10-16T11:27:44;34.30;32.80
23311;DHT22;11828;51.508;18.118;2022-10-16T11:30:19;34.40;32.90
23311;DHT22;11828;51.508;18.118;2022-10-16T11:41:22;34.10;33.30
23311;DHT22;11828;51.508;18.118;2022-10-16T11:43:57;34.00;33.20
23311;DHT22;11828;51.508;18.118;2022-10-16T11:46:31;34.00;33.40
23311;DHT22;11828;51.508;18.118;2022-10-16T11:49:08;33.90;33.60
23311;DHT22;11828;51.508;18.118;2022-10-16T11:52:30;33.70;33.90
23311;DHT22;11828;51.508;18.118;2022-10-16T11:54:56;33.80;34.60
23311;DHT22;11828;51.508;18.118;2022-10-16T11:57:32;33.90;33.90
23311;DHT22;11828;51.508;18.118;2022-10-16T12:03:19;33.80;33.80
23311;DHT22;11828;51.508;18.118;2022-10-16T12:06:22;33.70;33.90
23311;DHT22;11828;51.508;18.118;2022-10-16T12:09:15;33.90;34.20
23311;DHT22;11828;51.508;18.118;2022-10-16T12:11:46;34.30;33.90
23311;DHT22;11828;51.508;18.118;2022-10-16T12:16:59;34.50;33.50
23311;DHT22;11828;51.508;18.118;2022-10-16T12:19:28;34.50;33.50
23311;DHT22;11828;51.508;18.118;2022-10-16T12:22:01;34.50;33.40
23311;DHT22;11828;51.508;18.118;2022-10-16T12:24:35;34.30;33.40
23311;DHT22;11828;51.508;18.118;2022-10-16T12:27:05;34.30;33.60
23311;DHT22;11828;51.508;18.118;2022-10-16T12:29:46;34.40;33.70
23311;DHT22;11828;51.508;18.118;2022-10-16T12:32:29;34.50;33.70
23311;DHT22;11828;51.508;18.118;2022-10-16T12:34:59;34.50;33.60
23311;DHT22;11828;51.508;18.118;2022-10-16T12:37:28;34.50;33.60
23311;DHT22;11828;51.508;18.118;2022-10-16T12:39:57;34.40;33.50
23311;DHT22;11828;51.508;18.118;2022-10-16T12:44:54;34.40;33.50
23311;DHT22;11828;51.508;18.118;2022-10-16T12:49:58;34.40;33.30
23311;DHT22;11828;51.508;18.118;2022-10-16T12:55:00;34.40;33.80
23311;DHT22;11828;51.508;18.118;2022-10-16T12:57:57;34.50;33.90
23311;DHT22;11828;51.508;18.118;2022-10-16T13:09:43;34.40;33.70
23311;DHT22;11828;51.508;18.118;2022-10-16T13:20:27;34.40;33.60
23311;DHT22;11828;51.508;18.118;2022-10-16T13:26:01;34.30;33.80
23311;DHT22;11828;51.508;18.118;2022-10-16T13:28:39;34.50;33.80
23311;DHT22;11828;51.508;18.118;2022-10-16T13:31:05;34.40;33.80
23311;DHT22;11828;51.508;18.118;2022-10-16T13:33:45;34.20;34.10
23311;DHT22;11828;51.508;18.118;2022-10-16T13:36:26;34.10;34.20
23311;DHT22;11828;51.508;18.118;2022-10-16T13:39:13;34.00;34.40
23311;DHT22;11828;51.508;18.118;2022-10-16T13:41:42;34.10;34.50
23311;DHT22;11828;51.508;18.118;2022-10-16T13:44:18;34.10;34.30
23311;DHT22;11828;51.508;18.118;2022-10-16T13:46:45;34.00;34.30
23311;DHT22;11828;51.508;18.118;2022-10-16T13:49:15;34.00;34.40
23311;DHT22;11828;51.508;18.118;2022-10-16T13:51:42;34.10;34.50
23311;DHT22;11828;51.508;18.118;2022-10-16T13:54:20;34.20;34.50
23311;DHT22;11828;51.508;18.118;2022-10-16T13:56:45;34.20;34.40
23311;DHT22;11828;51.508;18.118;2022-10-16T13:59:34;34.20;34.40
23311;DHT22;11828;51.508;18.118;2022-10-16T14:02:08;34.20;34.40
23311;DHT22;11828;51.508;18.118;2022-10-16T14:04:42;34.20;34.30
23311;DHT22;11828;51.508;18.118;2022-10-16T14:07:14;34.30;34.30
23311;DHT22;11828;51.508;18.118;2022-10-16T14:09:48;33.60;34.00
23311;DHT22;11828;51.508;18.118;2022-10-16T14:12:15;34.10;34.30
23311;DHT22;11828;51.508;18.118;2022-10-16T14:14:44;34.10;34.30
23311;DHT22;11828;51.508;18.118;2022-10-16T14:17:32;34.00;34.40
23311;DHT22;11828;51.508;18.118;2022-10-16T14:20:04;34.10;34.50
23311;DHT22;11828;51.508;18.118;2022-10-16T14:25:24;34.20;34.50
23311;DHT22;11828;51.508;18.118;2022-10-16T14:30:33;33.90;34.80
23311;DHT22;11828;51.508;18.118;2022-10-16T14:33:06;33.90;34.80
23311;DHT22;11828;51.508;18.118;2022-10-16T14:35:44;33.90;34.90
23311;DHT22;11828;51.508;18.118;2022-10-16T14:38:19;33.90;35.00
23311;DHT22;11828;51.508;18.118;2022-10-16T14:40:48;33.80;35.00
23311;DHT22;11828;51.508;18.118;2022-10-16T14:43:24;33.80;35.00
23311;DHT22;11828;51.508;18.118;2022-10-16T14:45:56;33.80;35.20
23311;DHT22;11828;51.508;18.118;2022-10-16T14:48:22;33.60;35.30
23311;DHT22;11828;51.508;18.118;2022-10-16T14:50:49;33.70;35.30
23311;DHT22;11828;51.508;18.118;2022-10-16T14:53:16;33.60;35.30
23311;DHT22;11828;51.508;18.118;2022-10-16T14:55:43;33.60;35.40
23311;DHT22;11828;51.508;18.118;2022-10-16T14:58:20;33.50;35.40
23311;DHT22;11828;51.508;18.118;2022-10-16T15:00:48;33.60;35.40
23311;DHT22;11828;51.508;18.118;2022-10-16T15:03:14;33.60;35.30
23311;DHT22;11828;51.508;18.118;2022-10-16T15:05:40;33.50;35.20
23311;DHT22;11828;51.508;18.118;2022-10-16T15:08:06;33.50;35.20
23311;DHT22;11828;51.508;18.118;2022-10-16T15:10:43;33.40;35.10
23311;DHT22;11828;51.508;18.118;2022-10-16T15:13:13;33.30;35.10
23311;DHT22;11828;51.508;18.118;2022-10-16T15:15:45;33.30;35.30
23311;DHT22;11828;51.508;18.118;2022-10-16T15:18:12;33.20;35.50
23311;DHT22;11828;51.508;18.118;2022-10-16T15:20:40;33.10;35.60
23311;DHT22;11828;51.508;18.118;2022-10-16T15:23:21;33.00;35.60
23311;DHT22;11828;51.508;18.118;2022-10-16T15:25:52;33.00;35.90
23311;DHT22;11828;51.508;18.118;2022-10-16T15:28:20;33.10;35.70
23311;DHT22;11828;51.508;18.118;2022-10-16T15:30:50;33.10;35.70
23311;DHT22;11828;51.508;18.118;2022-10-16T15:33:22;33.10;35.60
23311;DHT22;11828;51.508;18.118;2022-10-16T15:35:51;33.20;35.70
23311;DHT22;11828;51.508;18.118;2022-10-16T15:38:19;33.20;35.50
23311;DHT22;11828;51.508;18.118;2022-10-16T15:40:47;33.20;35.70
23311;DHT22;11828;51.508;18.118;2022-10-16T15:43:13;33.10;35.70
23311;DHT22;11828;51.508;18.118;2022-10-16T15:45:40;33.10;35.80
23311;DHT22;11828;51.508;18.118;2022-10-16T15:48:09;32.90;35.90
23311;DHT22;11828;51.508;18.118;2022-10-16T15:50:37;32.80;36.00
23311;DHT22;11828;51.508;18.118;2022-10-16T15:53:03;32.90;36.20
23311;DHT22;11828;51.508;18.118;2022-10-16T15:55:30;32.90;36.10
23311;DHT22;11828;51.508;18.118;2022-10-16T15:57:56;32.80;36.10
23311;DHT22;11828;51.508;18.118;2022-10-16T16:00:22;32.80;36.20
23311;DHT22;11828;51.508;18.118;2022-10-16T16:02:54;32.70;36.40
23311;DHT22;11828;51.508;18.118;2022-10-16T16:05:21;32.70;36.50
23311;DHT22;11828;51.508;18.118;2022-10-16T16:07:48;32.60;36.60
23311;DHT22;11828;51.508;18.118;2022-10-16T16:10:15;32.60;36.60
23311;DHT22;11828;51.508;18.118;2022-10-16T16:12:42;32.60;36.50
23311;DHT22;11828;51.508;18.118;2022-10-16T16:15:09;32.60;36.60
23311;DHT22;11828;51.508;18.118;2022-10-16T16:17:36;32.70;36.50
23311;DHT22;11828;51.508;18.118;2022-10-16T16:20:04;32.70;36.40
23311;DHT22;11828;51.508;18.118;2022-10-16T16:22:30;32.80;36.40
23311;DHT22;11828;51.508;18.118;2022-10-16T16:24:56;32.80;36.40
23311;DHT22;11828;51.508;18.118;2022-10-16T16:27:22;32.80;36.40
23311;DHT22;11828;51.508;18.118;2022-10-16T16:29:50;32.70;36.50
23311;DHT22;11828;51.508;18.118;2022-10-16T16:32:16;32.70;36.60
23311;DHT22;11828;51.508;18.118;2022-10-16T16:34:42;32.60;36.60
23311;DHT22;11828;51.508;18.118;2022-10-16T16:37:08;32.60;36.60
23311;DHT22;11828;51.508;18.118;2022-10-16T16:39:34;32.60;36.60
23311;DHT22;11828;51.508;18.118;2022-10-16T16:42:00;32.60;36.60
23311;DHT22;11828;51.508;18.118;2022-10-16T16:44:29;32.60;36.60
23311;DHT22;11828;51.508;18.118;2022-10-16T16:46:55;32.40;36.80
23311;DHT22;11828;51.508;18.118;2022-10-16T16:49:21;32.40;37.00
23311;DHT22;11828;51.508;18.118;2022-10-16T16:51:47;32.30;37.00
23311;DHT22;11828;51.508;18.118;2022-10-16T16:54:13;32.20;37.00
23311;DHT22;11828;51.508;18.118;2022-10-16T16:56:40;32.30;37.00
23311;DHT22;11828;51.508;18.118;2022-10-16T16:59:16;32.30;36.90
23311;DHT22;11828;51.508;18.118;2022-10-16T17:01:48;32.10;37.00
23311;DHT22;11828;51.508;18.118;2022-10-16T17:04:14;32.30;37.10
23311;DHT22;11828;51.508;18.118;2022-10-16T17:06:44;32.20;37.00
23311;DHT22;11828;51.508;18.118;2022-10-16T17:09:11;32.10;37.10
23311;DHT22;11828;51.508;18.118;2022-10-16T17:11:40;32.20;37.10
23311;DHT22;11828;51.508;18.118;2022-10-16T17:14:08;32.10;37.00
23311;DHT22;11828;51.508;18.118;2022-10-16T17:16:36;32.10;37.10
23311;DHT22;11828;51.508;18.118;2022-10-16T17:19:05;32.10;37.20
23311;DHT22;11828;51.508;18.118;2022-10-16T17:21:32;32.10;37.40
23311;DHT22;11828;51.508;18.118;2022-10-16T17:23:59;32.00;37.40
23311;DHT22;11828;51.508;18.118;2022-10-16T17:26:26;32.10;37.20
23311;DHT22;11828;51.508;18.118;2022-10-16T17:28:55;32.10;37.20
23311;DHT22;11828;51.508;18.118;2022-10-16T17:31:25;32.10;37.20